Fort Liard, Canada
Current Conditions -  °F | °C
As of 11:00 AM on Sunday 25 Jan 2015 (Local Time) from CYYE Reporting Station
Light Snow Light Snow  
Wind Chill: -7°   Ceiling: 700
Heat Index:   Visibility: 15mi
Dew Point:   Wind: 9mph
Humidity: 92%   Direction: 330°NNW
Pressure: 29.61"   Gusts: NA
Location:  60.23°N, 123.48°W
Report Text: CYYE 251800Z 33008KT 15SM -SN OVC007 M14/M15 A2961 RMK ST8 SLP054
Loading
Personal Weather Stations






























Interactive Weather Map New forecast layout! Learn more

10-Day Weather Forecast

Advertisements
Track Severe Weather on mobile